sensor_id;sensor_type;location;lat;lon;timestamp;P1;durP1;ratioP1;P2;durP2;ratioP2
73132;SDS011;61320;52.008;4.530;2022-07-06T00:01:44;1.56;;;1.56;;
73132;SDS011;61320;52.008;4.530;2022-07-06T00:04:10;1.51;;;1.51;;
73132;SDS011;61320;52.008;4.530;2022-07-06T00:06:36;1.47;;;1.47;;
73132;SDS011;61320;52.008;4.530;2022-07-06T00:09:02;1.38;;;1.38;;
73132;SDS011;61320;52.008;4.530;2022-07-06T00:11:28;1.58;;;1.58;;
73132;SDS011;61320;52.008;4.530;2022-07-06T00:13:54;1.57;;;1.57;;
73132;SDS011;61320;52.008;4.530;2022-07-06T00:16:21;1.53;;;1.53;;
73132;SDS011;61320;52.008;4.530;2022-07-06T00:18:47;1.54;;;1.54;;
73132;SDS011;61320;52.008;4.530;2022-07-06T00:21:13;1.54;;;1.54;;
73132;SDS011;61320;52.008;4.530;2022-07-06T00:23:38;1.50;;;1.50;;
73132;SDS011;61320;52.008;4.530;2022-07-06T00:26:04;1.45;;;1.44;;
73132;SDS011;61320;52.008;4.530;2022-07-06T00:28:30;1.42;;;1.38;;
73132;SDS011;61320;52.008;4.530;2022-07-06T00:30:56;1.41;;;1.36;;
73132;SDS011;61320;52.008;4.530;2022-07-06T00:33:22;1.40;;;1.40;;
73132;SDS011;61320;52.008;4.530;2022-07-06T00:35:47;1.36;;;1.34;;
73132;SDS011;61320;52.008;4.530;2022-07-06T00:38:14;1.46;;;1.46;;
73132;SDS011;61320;52.008;4.530;2022-07-06T00:40:39;1.28;;;1.26;;
73132;SDS011;61320;52.008;4.530;2022-07-06T00:43:05;1.39;;;1.34;;
73132;SDS011;61320;52.008;4.530;2022-07-06T00:45:30;1.36;;;1.32;;
73132;SDS011;61320;52.008;4.530;2022-07-06T00:47:56;1.47;;;1.42;;
73132;SDS011;61320;52.008;4.530;2022-07-06T00:50:22;1.42;;;1.37;;
73132;SDS011;61320;52.008;4.530;2022-07-06T00:52:54;1.36;;;1.31;;
73132;SDS011;61320;52.008;4.530;2022-07-06T00:55:27;1.23;;;1.23;;
73132;SDS011;61320;52.008;4.530;2022-07-06T00:57:54;1.41;;;1.41;;
73132;SDS011;61320;52.008;4.530;2022-07-06T01:00:22;1.38;;;1.38;;
73132;SDS011;61320;52.008;4.530;2022-07-06T01:02:49;1.36;;;1.36;;
73132;SDS011;61320;52.008;4.530;2022-07-06T01:05:14;1.41;;;1.41;;
73132;SDS011;61320;52.008;4.530;2022-07-06T01:07:42;1.51;;;1.51;;
73132;SDS011;61320;52.008;4.530;2022-07-06T01:10:10;1.39;;;1.39;;
73132;SDS011;61320;52.008;4.530;2022-07-06T01:12:41;1.34;;;1.34;;
73132;SDS011;61320;52.008;4.530;2022-07-06T01:15:10;1.52;;;1.52;;
73132;SDS011;61320;52.008;4.530;2022-07-06T01:17:38;1.40;;;1.40;;
73132;SDS011;61320;52.008;4.530;2022-07-06T01:20:07;1.54;;;1.54;;
73132;SDS011;61320;52.008;4.530;2022-07-06T01:22:43;1.54;;;1.54;;
73132;SDS011;61320;52.008;4.530;2022-07-06T01:25:10;1.51;;;1.51;;
73132;SDS011;61320;52.008;4.530;2022-07-06T01:27:37;1.58;;;1.58;;
73132;SDS011;61320;52.008;4.530;2022-07-06T01:30:14;1.41;;;1.41;;
73132;SDS011;61320;52.008;4.530;2022-07-06T01:32:42;1.36;;;1.36;;
73132;SDS011;61320;52.008;4.530;2022-07-06T01:35:09;1.52;;;1.52;;
73132;SDS011;61320;52.008;4.530;2022-07-06T01:37:36;1.54;;;1.54;;
73132;SDS011;61320;52.008;4.530;2022-07-06T01:40:06;1.54;;;1.54;;
73132;SDS011;61320;52.008;4.530;2022-07-06T01:42:34;1.53;;;1.53;;
73132;SDS011;61320;52.008;4.530;2022-07-06T01:44:59;1.48;;;1.48;;
73132;SDS011;61320;52.008;4.530;2022-07-06T01:47:25;1.47;;;1.47;;
73132;SDS011;61320;52.008;4.530;2022-07-06T01:49:51;1.40;;;1.40;;
73132;SDS011;61320;52.008;4.530;2022-07-06T01:52:17;1.35;;;1.35;;
73132;SDS011;61320;52.008;4.530;2022-07-06T01:54:42;1.30;;;1.30;;
73132;SDS011;61320;52.008;4.530;2022-07-06T01:57:09;1.30;;;1.30;;
73132;SDS011;61320;52.008;4.530;2022-07-06T01:59:35;1.45;;;1.45;;
73132;SDS011;61320;52.008;4.530;2022-07-06T02:02:00;1.31;;;1.31;;
73132;SDS011;61320;52.008;4.530;2022-07-06T02:04:26;1.16;;;1.16;;
73132;SDS011;61320;52.008;4.530;2022-07-06T02:06:51;1.24;;;1.24;;
73132;SDS011;61320;52.008;4.530;2022-07-06T02:09:17;1.08;;;1.08;;
73132;SDS011;61320;52.008;4.530;2022-07-06T02:11:42;1.18;;;1.17;;
73132;SDS011;61320;52.008;4.530;2022-07-06T02:14:08;1.35;;;1.33;;
73132;SDS011;61320;52.008;4.530;2022-07-06T02:16:33;1.24;;;1.21;;
73132;SDS011;61320;52.008;4.530;2022-07-06T02:18:59;1.38;;;1.34;;
73132;SDS011;61320;52.008;4.530;2022-07-06T02:21:24;1.37;;;1.33;;
73132;SDS011;61320;52.008;4.530;2022-07-06T02:23:50;1.52;;;1.45;;
73132;SDS011;61320;52.008;4.530;2022-07-06T02:26:15;1.26;;;1.21;;
73132;SDS011;61320;52.008;4.530;2022-07-06T02:28:41;1.53;;;1.47;;
73132;SDS011;61320;52.008;4.530;2022-07-06T02:31:06;1.46;;;1.41;;
73132;SDS011;61320;52.008;4.530;2022-07-06T02:33:32;1.49;;;1.45;;
73132;SDS011;61320;52.008;4.530;2022-07-06T02:35:57;1.31;;;1.28;;
73132;SDS011;61320;52.008;4.530;2022-07-06T02:38:22;1.26;;;1.24;;
73132;SDS011;61320;52.008;4.530;2022-07-06T02:40:48;1.25;;;1.22;;
73132;SDS011;61320;52.008;4.530;2022-07-06T02:43:13;1.35;;;1.32;;
73132;SDS011;61320;52.008;4.530;2022-07-06T02:45:39;1.45;;;1.42;;
73132;SDS011;61320;52.008;4.530;2022-07-06T02:48:04;1.34;;;1.33;;
73132;SDS011;61320;52.008;4.530;2022-07-06T02:50:30;1.49;;;1.46;;
73132;SDS011;61320;52.008;4.530;2022-07-06T02:52:56;1.85;;;1.80;;
73132;SDS011;61320;52.008;4.530;2022-07-06T02:55:21;1.68;;;1.63;;
73132;SDS011;61320;52.008;4.530;2022-07-06T02:57:47;1.55;;;1.52;;
73132;SDS011;61320;52.008;4.530;2022-07-06T03:00:12;1.34;;;1.34;;
73132;SDS011;61320;52.008;4.530;2022-07-06T03:02:38;1.31;;;1.31;;
73132;SDS011;61320;52.008;4.530;2022-07-06T03:05:04;1.59;;;1.57;;
73132;SDS011;61320;52.008;4.530;2022-07-06T03:07:30;1.42;;;1.40;;
73132;SDS011;61320;52.008;4.530;2022-07-06T03:09:56;1.47;;;1.45;;
73132;SDS011;61320;52.008;4.530;2022-07-06T03:12:21;1.50;;;1.48;;
73132;SDS011;61320;52.008;4.530;2022-07-06T03:14:47;1.63;;;1.62;;
73132;SDS011;61320;52.008;4.530;2022-07-06T03:17:12;1.53;;;1.52;;
73132;SDS011;61320;52.008;4.530;2022-07-06T03:19:38;1.37;;;1.37;;
73132;SDS011;61320;52.008;4.530;2022-07-06T03:22:03;1.43;;;1.43;;
73132;SDS011;61320;52.008;4.530;2022-07-06T03:24:29;1.40;;;1.40;;
73132;SDS011;61320;52.008;4.530;2022-07-06T03:26:54;1.59;;;1.57;;
73132;SDS011;61320;52.008;4.530;2022-07-06T03:29:20;1.53;;;1.53;;
73132;SDS011;61320;52.008;4.530;2022-07-06T03:31:45;1.75;;;1.75;;
73132;SDS011;61320;52.008;4.530;2022-07-06T03:34:11;1.98;;;1.94;;
73132;SDS011;61320;52.008;4.530;2022-07-06T03:36:36;1.88;;;1.88;;
73132;SDS011;61320;52.008;4.530;2022-07-06T03:39:02;2.04;;;2.04;;
73132;SDS011;61320;52.008;4.530;2022-07-06T03:41:28;1.76;;;1.76;;
73132;SDS011;61320;52.008;4.530;2022-07-06T03:43:54;1.84;;;1.84;;
73132;SDS011;61320;52.008;4.530;2022-07-06T03:46:19;1.77;;;1.77;;
73132;SDS011;61320;52.008;4.530;2022-07-06T03:48:45;1.84;;;1.84;;
73132;SDS011;61320;52.008;4.530;2022-07-06T03:51:10;1.76;;;1.76;;
73132;SDS011;61320;52.008;4.530;2022-07-06T03:53:36;1.71;;;1.71;;
73132;SDS011;61320;52.008;4.530;2022-07-06T03:56:02;1.76;;;1.76;;
73132;SDS011;61320;52.008;4.530;2022-07-06T03:58:46;1.65;;;1.64;;
73132;SDS011;61320;52.008;4.530;2022-07-06T04:01:12;1.64;;;1.64;;
73132;SDS011;61320;52.008;4.530;2022-07-06T04:03:37;1.47;;;1.47;;
73132;SDS011;61320;52.008;4.530;2022-07-06T04:06:03;1.52;;;1.52;;
73132;SDS011;61320;52.008;4.530;2022-07-06T04:08:29;1.55;;;1.55;;
73132;SDS011;61320;52.008;4.530;2022-07-06T04:10:54;1.64;;;1.63;;
73132;SDS011;61320;52.008;4.530;2022-07-06T04:13:20;1.78;;;1.77;;
73132;SDS011;61320;52.008;4.530;2022-07-06T04:15:46;1.75;;;1.73;;
73132;SDS011;61320;52.008;4.530;2022-07-06T04:18:11;1.76;;;1.76;;
73132;SDS011;61320;52.008;4.530;2022-07-06T04:20:37;1.90;;;1.89;;
73132;SDS011;61320;52.008;4.530;2022-07-06T04:23:02;2.09;;;2.06;;
73132;SDS011;61320;52.008;4.530;2022-07-06T04:25:28;1.86;;;1.82;;
73132;SDS011;61320;52.008;4.530;2022-07-06T04:27:54;1.72;;;1.68;;
73132;SDS011;61320;52.008;4.530;2022-07-06T04:30:19;1.61;;;1.57;;
73132;SDS011;61320;52.008;4.530;2022-07-06T04:32:45;1.54;;;1.51;;
73132;SDS011;61320;52.008;4.530;2022-07-06T04:35:10;1.49;;;1.48;;
73132;SDS011;61320;52.008;4.530;2022-07-06T04:37:36;1.63;;;1.62;;
73132;SDS011;61320;52.008;4.530;2022-07-06T04:40:02;1.74;;;1.74;;
73132;SDS011;61320;52.008;4.530;2022-07-06T04:42:28;1.50;;;1.50;;
73132;SDS011;61320;52.008;4.530;2022-07-06T04:44:53;1.70;;;1.70;;
73132;SDS011;61320;52.008;4.530;2022-07-06T04:47:19;1.56;;;1.56;;
73132;SDS011;61320;52.008;4.530;2022-07-06T04:49:44;1.93;;;1.93;;
73132;SDS011;61320;52.008;4.530;2022-07-06T04:52:10;1.85;;;1.85;;
73132;SDS011;61320;52.008;4.530;2022-07-06T04:54:36;2.01;;;1.94;;
73132;SDS011;61320;52.008;4.530;2022-07-06T04:57:01;2.31;;;2.19;;
73132;SDS011;61320;52.008;4.530;2022-07-06T04:59:26;1.95;;;1.93;;
73132;SDS011;61320;52.008;4.530;2022-07-06T05:01:52;2.02;;;2.01;;
73132;SDS011;61320;52.008;4.530;2022-07-06T05:04:17;2.06;;;2.01;;
73132;SDS011;61320;52.008;4.530;2022-07-06T05:06:46;2.26;;;2.14;;
73132;SDS011;61320;52.008;4.530;2022-07-06T05:09:12;2.28;;;2.12;;
73132;SDS011;61320;52.008;4.530;2022-07-06T05:11:38;2.41;;;2.22;;
73132;SDS011;61320;52.008;4.530;2022-07-06T05:14:04;2.60;;;2.36;;
73132;SDS011;61320;52.008;4.530;2022-07-06T05:16:30;2.46;;;2.23;;
73132;SDS011;61320;52.008;4.530;2022-07-06T05:18:57;2.23;;;2.05;;
73132;SDS011;61320;52.008;4.530;2022-07-06T05:21:22;2.09;;;1.92;;
73132;SDS011;61320;52.008;4.530;2022-07-06T05:23:48;1.98;;;1.90;;
73132;SDS011;61320;52.008;4.530;2022-07-06T05:26:13;1.93;;;1.93;;
73132;SDS011;61320;52.008;4.530;2022-07-06T05:28:39;1.78;;;1.78;;
73132;SDS011;61320;52.008;4.530;2022-07-06T05:31:04;1.68;;;1.65;;
73132;SDS011;61320;52.008;4.530;2022-07-06T05:33:30;1.74;;;1.72;;
73132;SDS011;61320;52.008;4.530;2022-07-06T05:35:55;1.58;;;1.58;;
73132;SDS011;61320;52.008;4.530;2022-07-06T05:38:21;1.29;;;1.29;;
73132;SDS011;61320;52.008;4.530;2022-07-06T05:40:46;1.52;;;1.52;;
73132;SDS011;61320;52.008;4.530;2022-07-06T05:43:12;1.28;;;1.28;;
73132;SDS011;61320;52.008;4.530;2022-07-06T05:45:37;1.64;;;1.59;;
73132;SDS011;61320;52.008;4.530;2022-07-06T05:48:03;1.70;;;1.62;;
73132;SDS011;61320;52.008;4.530;2022-07-06T05:50:47;1.75;;;1.73;;
73132;SDS011;61320;52.008;4.530;2022-07-06T05:53:12;1.82;;;1.79;;
73132;SDS011;61320;52.008;4.530;2022-07-06T05:55:38;2.33;;;2.15;;
73132;SDS011;61320;52.008;4.530;2022-07-06T05:58:03;1.72;;;1.57;;
73132;SDS011;61320;52.008;4.530;2022-07-06T06:00:29;1.83;;;1.73;;
73132;SDS011;61320;52.008;4.530;2022-07-06T06:02:54;1.70;;;1.70;;
73132;SDS011;61320;52.008;4.530;2022-07-06T06:05:20;1.36;;;1.35;;
73132;SDS011;61320;52.008;4.530;2022-07-06T06:07:46;1.16;;;1.16;;
73132;SDS011;61320;52.008;4.530;2022-07-06T06:10:13;0.96;;;0.93;;
73132;SDS011;61320;52.008;4.530;2022-07-06T06:12:40;0.97;;;0.96;;
73132;SDS011;61320;52.008;4.530;2022-07-06T06:15:06;1.26;;;1.20;;
73132;SDS011;61320;52.008;4.530;2022-07-06T06:17:33;1.01;;;0.95;;
73132;SDS011;61320;52.008;4.530;2022-07-06T06:20:00;0.88;;;0.81;;
73132;SDS011;61320;52.008;4.530;2022-07-06T06:22:25;0.96;;;0.89;;
73132;SDS011;61320;52.008;4.530;2022-07-06T06:24:51;1.01;;;0.94;;
73132;SDS011;61320;52.008;4.530;2022-07-06T06:27:16;0.91;;;0.90;;
73132;SDS011;61320;52.008;4.530;2022-07-06T06:29:42;0.93;;;0.90;;
73132;SDS011;61320;52.008;4.530;2022-07-06T06:32:12;0.99;;;0.92;;
73132;SDS011;61320;52.008;4.530;2022-07-06T06:34:39;0.96;;;0.90;;
73132;SDS011;61320;52.008;4.530;2022-07-06T06:37:05;0.95;;;0.88;;
73132;SDS011;61320;52.008;4.530;2022-07-06T06:39:30;0.92;;;0.86;;
73132;SDS011;61320;52.008;4.530;2022-07-06T06:41:57;0.92;;;0.86;;
73132;SDS011;61320;52.008;4.530;2022-07-06T06:44:23;0.87;;;0.82;;
73132;SDS011;61320;52.008;4.530;2022-07-06T06:46:50;0.91;;;0.85;;
73132;SDS011;61320;52.008;4.530;2022-07-06T06:49:17;0.83;;;0.78;;
73132;SDS011;61320;52.008;4.530;2022-07-06T06:51:43;0.86;;;0.81;;
73132;SDS011;61320;52.008;4.530;2022-07-06T06:54:09;1.00;;;0.93;;
73132;SDS011;61320;52.008;4.530;2022-07-06T06:56:34;0.87;;;0.81;;
73132;SDS011;61320;52.008;4.530;2022-07-06T06:59:00;0.83;;;0.77;;
73132;SDS011;61320;52.008;4.530;2022-07-06T07:01:27;0.90;;;0.84;;
73132;SDS011;61320;52.008;4.530;2022-07-06T07:03:53;0.75;;;0.70;;
73132;SDS011;61320;52.008;4.530;2022-07-06T07:06:20;0.73;;;0.70;;
73132;SDS011;61320;52.008;4.530;2022-07-06T07:08:45;0.82;;;0.76;;
73132;SDS011;61320;52.008;4.530;2022-07-06T07:11:11;0.83;;;0.76;;
73132;SDS011;61320;52.008;4.530;2022-07-06T07:13:36;0.68;;;0.62;;
73132;SDS011;61320;52.008;4.530;2022-07-06T07:16:01;0.85;;;0.81;;
73132;SDS011;61320;52.008;4.530;2022-07-06T07:18:27;0.66;;;0.64;;
73132;SDS011;61320;52.008;4.530;2022-07-06T07:20:52;0.73;;;0.68;;
73132;SDS011;61320;52.008;4.530;2022-07-06T07:23:18;0.76;;;0.73;;
73132;SDS011;61320;52.008;4.530;2022-07-06T07:25:43;0.74;;;0.71;;
73132;SDS011;61320;52.008;4.530;2022-07-06T07:28:09;0.88;;;0.83;;
73132;SDS011;61320;52.008;4.530;2022-07-06T07:30:34;0.75;;;0.72;;
73132;SDS011;61320;52.008;4.530;2022-07-06T07:33:00;0.80;;;0.73;;
73132;SDS011;61320;52.008;4.530;2022-07-06T07:35:26;0.72;;;0.65;;
73132;SDS011;61320;52.008;4.530;2022-07-06T07:37:52;0.68;;;0.61;;
73132;SDS011;61320;52.008;4.530;2022-07-06T07:40:17;0.63;;;0.56;;
73132;SDS011;61320;52.008;4.530;2022-07-06T07:42:43;0.45;;;0.41;;
73132;SDS011;61320;52.008;4.530;2022-07-06T07:45:10;0.65;;;0.59;;
73132;SDS011;61320;52.008;4.530;2022-07-06T07:47:36;0.79;;;0.71;;
73132;SDS011;61320;52.008;4.530;2022-07-06T07:50:01;0.60;;;0.54;;
73132;SDS011;61320;52.008;4.530;2022-07-06T07:52:28;0.59;;;0.53;;
73132;SDS011;61320;52.008;4.530;2022-07-06T07:54:53;0.79;;;0.72;;
73132;SDS011;61320;52.008;4.530;2022-07-06T07:57:19;0.74;;;0.67;;
73132;SDS011;61320;52.008;4.530;2022-07-06T07:59:44;0.63;;;0.57;;
73132;SDS011;61320;52.008;4.530;2022-07-06T08:02:10;0.77;;;0.69;;
73132;SDS011;61320;52.008;4.530;2022-07-06T08:04:35;0.54;;;0.48;;
73132;SDS011;61320;52.008;4.530;2022-07-06T08:07:00;0.71;;;0.64;;
73132;SDS011;61320;52.008;4.530;2022-07-06T08:09:26;0.71;;;0.65;;
73132;SDS011;61320;52.008;4.530;2022-07-06T08:11:51;0.58;;;0.53;;
73132;SDS011;61320;52.008;4.530;2022-07-06T08:14:17;0.55;;;0.50;;
73132;SDS011;61320;52.008;4.530;2022-07-06T08:16:43;0.69;;;0.61;;
73132;SDS011;61320;52.008;4.530;2022-07-06T08:19:08;0.55;;;0.50;;
73132;SDS011;61320;52.008;4.530;2022-07-06T08:21:34;0.57;;;0.52;;
73132;SDS011;61320;52.008;4.530;2022-07-06T08:24:00;0.50;;;0.46;;
73132;SDS011;61320;52.008;4.530;2022-07-06T08:26:26;0.56;;;0.51;;
73132;SDS011;61320;52.008;4.530;2022-07-06T08:28:53;0.46;;;0.42;;
73132;SDS011;61320;52.008;4.530;2022-07-06T08:31:19;0.58;;;0.53;;
73132;SDS011;61320;52.008;4.530;2022-07-06T08:33:45;0.60;;;0.55;;
73132;SDS011;61320;52.008;4.530;2022-07-06T08:36:10;0.60;;;0.55;;
73132;SDS011;61320;52.008;4.530;2022-07-06T08:38:36;0.62;;;0.56;;
73132;SDS011;61320;52.008;4.530;2022-07-06T08:41:01;0.66;;;0.59;;
73132;SDS011;61320;52.008;4.530;2022-07-06T08:43:28;0.64;;;0.57;;
73132;SDS011;61320;52.008;4.530;2022-07-06T08:45:53;0.98;;;0.87;;
73132;SDS011;61320;52.008;4.530;2022-07-06T08:48:19;0.64;;;0.56;;
73132;SDS011;61320;52.008;4.530;2022-07-06T08:50:48;0.85;;;0.75;;
73132;SDS011;61320;52.008;4.530;2022-07-06T08:53:15;0.62;;;0.55;;
73132;SDS011;61320;52.008;4.530;2022-07-06T08:55:42;0.61;;;0.53;;
73132;SDS011;61320;52.008;4.530;2022-07-06T08:58:08;0.60;;;0.53;;
73132;SDS011;61320;52.008;4.530;2022-07-06T09:00:34;0.53;;;0.47;;
73132;SDS011;61320;52.008;4.530;2022-07-06T09:03:00;0.67;;;0.59;;
73132;SDS011;61320;52.008;4.530;2022-07-06T09:05:26;0.61;;;0.54;;
73132;SDS011;61320;52.008;4.530;2022-07-06T09:07:54;0.63;;;0.57;;
73132;SDS011;61320;52.008;4.530;2022-07-06T09:10:21;0.66;;;0.59;;
73132;SDS011;61320;52.008;4.530;2022-07-06T09:12:47;0.82;;;0.72;;
73132;SDS011;61320;52.008;4.530;2022-07-06T09:15:13;0.71;;;0.63;;
73132;SDS011;61320;52.008;4.530;2022-07-06T09:17:39;0.74;;;0.66;;
73132;SDS011;61320;52.008;4.530;2022-07-06T09:20:10;0.80;;;0.71;;
73132;SDS011;61320;52.008;4.530;2022-07-06T09:22:37;0.79;;;0.69;;
73132;SDS011;61320;52.008;4.530;2022-07-06T09:27:37;0.72;;;0.64;;
73132;SDS011;61320;52.008;4.530;2022-07-06T09:30:04;0.69;;;0.60;;
73132;SDS011;61320;52.008;4.530;2022-07-06T09:32:30;0.70;;;0.62;;
73132;SDS011;61320;52.008;4.530;2022-07-06T09:34:56;0.73;;;0.65;;
73132;SDS011;61320;52.008;4.530;2022-07-06T09:37:22;0.71;;;0.63;;
73132;SDS011;61320;52.008;4.530;2022-07-06T09:39:49;0.75;;;0.66;;
73132;SDS011;61320;52.008;4.530;2022-07-06T09:42:14;0.78;;;0.68;;
73132;SDS011;61320;52.008;4.530;2022-07-06T09:44:41;0.74;;;0.65;;
73132;SDS011;61320;52.008;4.530;2022-07-06T09:47:08;0.78;;;0.67;;
73132;SDS011;61320;52.008;4.530;2022-07-06T09:49:35;0.88;;;0.76;;
73132;SDS011;61320;52.008;4.530;2022-07-06T09:52:05;0.81;;;0.70;;
73132;SDS011;61320;52.008;4.530;2022-07-06T09:54:33;0.91;;;0.79;;
73132;SDS011;61320;52.008;4.530;2022-07-06T09:57:00;0.95;;;0.83;;
73132;SDS011;61320;52.008;4.530;2022-07-06T09:59:27;1.01;;;0.87;;
73132;SDS011;61320;52.008;4.530;2022-07-06T10:01:58;1.01;;;0.87;;
73132;SDS011;61320;52.008;4.530;2022-07-06T10:04:26;0.92;;;0.79;;
73132;SDS011;61320;52.008;4.530;2022-07-06T10:06:53;1.03;;;0.89;;
73132;SDS011;61320;52.008;4.530;2022-07-06T10:09:20;0.91;;;0.80;;
73132;SDS011;61320;52.008;4.530;2022-07-06T10:11:49;1.06;;;0.92;;
73132;SDS011;61320;52.008;4.530;2022-07-06T10:14:17;1.06;;;0.92;;
73132;SDS011;61320;52.008;4.530;2022-07-06T10:16:46;1.00;;;0.88;;
73132;SDS011;61320;52.008;4.530;2022-07-06T10:19:13;0.87;;;0.77;;
73132;SDS011;61320;52.008;4.530;2022-07-06T10:21:39;0.84;;;0.74;;
73132;SDS011;61320;52.008;4.530;2022-07-06T10:24:06;1.15;;;1.00;;
73132;SDS011;61320;52.008;4.530;2022-07-06T10:26:33;0.87;;;0.76;;
73132;SDS011;61320;52.008;4.530;2022-07-06T10:29:00;1.10;;;0.98;;
73132;SDS011;61320;52.008;4.530;2022-07-06T10:31:29;1.35;;;1.21;;
73132;SDS011;61320;52.008;4.530;2022-07-06T10:33:58;1.36;;;1.23;;
73132;SDS011;61320;52.008;4.530;2022-07-06T10:36:26;1.33;;;1.20;;
73132;SDS011;61320;52.008;4.530;2022-07-06T10:38:53;1.35;;;1.21;;
73132;SDS011;61320;52.008;4.530;2022-07-06T10:41:29;1.20;;;1.07;;
73132;SDS011;61320;52.008;4.530;2022-07-06T10:43:56;1.26;;;1.12;;
73132;SDS011;61320;52.008;4.530;2022-07-06T10:46:23;1.12;;;0.98;;
73132;SDS011;61320;52.008;4.530;2022-07-06T10:48:54;1.03;;;0.89;;
73132;SDS011;61320;52.008;4.530;2022-07-06T10:51:22;0.94;;;0.81;;
73132;SDS011;61320;52.008;4.530;2022-07-06T10:53:56;0.88;;;0.77;;
73132;SDS011;61320;52.008;4.530;2022-07-06T10:56:40;0.88;;;0.77;;
73132;SDS011;61320;52.008;4.530;2022-07-06T10:59:13;1.16;;;1.01;;
73132;SDS011;61320;52.008;4.530;2022-07-06T11:01:40;1.04;;;0.90;;
73132;SDS011;61320;52.008;4.530;2022-07-06T11:04:30;0.99;;;0.85;;
73132;SDS011;61320;52.008;4.530;2022-07-06T11:06:57;1.09;;;0.94;;
73132;SDS011;61320;52.008;4.530;2022-07-06T11:09:33;1.11;;;0.97;;
73132;SDS011;61320;52.008;4.530;2022-07-06T11:12:10;1.17;;;1.03;;
73132;SDS011;61320;52.008;4.530;2022-07-06T11:14:38;1.14;;;0.99;;
73132;SDS011;61320;52.008;4.530;2022-07-06T11:17:04;1.15;;;1.01;;
73132;SDS011;61320;52.008;4.530;2022-07-06T11:19:30;1.06;;;0.94;;
73132;SDS011;61320;52.008;4.530;2022-07-06T11:24:29;1.16;;;1.04;;
73132;SDS011;61320;52.008;4.530;2022-07-06T11:26:57;1.22;;;1.09;;
73132;SDS011;61320;52.008;4.530;2022-07-06T11:29:25;1.05;;;0.95;;
73132;SDS011;61320;52.008;4.530;2022-07-06T11:31:53;1.25;;;1.14;;
73132;SDS011;61320;52.008;4.530;2022-07-06T11:34:20;1.41;;;1.29;;
73132;SDS011;61320;52.008;4.530;2022-07-06T11:36:48;1.48;;;1.36;;
73132;SDS011;61320;52.008;4.530;2022-07-06T11:39:14;1.67;;;1.55;;
73132;SDS011;61320;52.008;4.530;2022-07-06T11:41:40;1.37;;;1.27;;
73132;SDS011;61320;52.008;4.530;2022-07-06T11:44:06;1.29;;;1.20;;
73132;SDS011;61320;52.008;4.530;2022-07-06T11:46:34;1.23;;;1.16;;
73132;SDS011;61320;52.008;4.530;2022-07-06T11:49:01;1.65;;;1.55;;
73132;SDS011;61320;52.008;4.530;2022-07-06T11:51:28;1.37;;;1.29;;
73132;SDS011;61320;52.008;4.530;2022-07-06T11:53:56;1.34;;;1.26;;
73132;SDS011;61320;52.008;4.530;2022-07-06T11:56:24;1.22;;;1.14;;
73132;SDS011;61320;52.008;4.530;2022-07-06T11:58:53;1.55;;;1.46;;
73132;SDS011;61320;52.008;4.530;2022-07-06T12:01:21;1.45;;;1.36;;
73132;SDS011;61320;52.008;4.530;2022-07-06T12:03:49;1.55;;;1.45;;
73132;SDS011;61320;52.008;4.530;2022-07-06T12:06:19;1.66;;;1.56;;
73132;SDS011;61320;52.008;4.530;2022-07-06T12:08:47;1.56;;;1.47;;
73132;SDS011;61320;52.008;4.530;2022-07-06T12:11:22;1.50;;;1.39;;
73132;SDS011;61320;52.008;4.530;2022-07-06T12:13:50;1.66;;;1.59;;
73132;SDS011;61320;52.008;4.530;2022-07-06T12:16:17;1.58;;;1.58;;
73132;SDS011;61320;52.008;4.530;2022-07-06T12:18:44;1.50;;;1.48;;
73132;SDS011;61320;52.008;4.530;2022-07-06T12:21:13;1.64;;;1.54;;
73132;SDS011;61320;52.008;4.530;2022-07-06T12:23:49;1.69;;;1.59;;
73132;SDS011;61320;52.008;4.530;2022-07-06T12:26:19;1.73;;;1.70;;
73132;SDS011;61320;52.008;4.530;2022-07-06T12:29:09;1.58;;;1.58;;
73132;SDS011;61320;52.008;4.530;2022-07-06T12:34:16;1.39;;;1.36;;
73132;SDS011;61320;52.008;4.530;2022-07-06T12:39:13;1.87;;;1.71;;
73132;SDS011;61320;52.008;4.530;2022-07-06T12:41:44;1.75;;;1.67;;
73132;SDS011;61320;52.008;4.530;2022-07-06T12:44:12;1.58;;;1.58;;
73132;SDS011;61320;52.008;4.530;2022-07-06T12:46:38;1.54;;;1.54;;
73132;SDS011;61320;52.008;4.530;2022-07-06T12:49:12;1.71;;;1.71;;
73132;SDS011;61320;52.008;4.530;2022-07-06T12:51:54;1.90;;;1.90;;
73132;SDS011;61320;52.008;4.530;2022-07-06T12:54:25;1.77;;;1.77;;
73132;SDS011;61320;52.008;4.530;2022-07-06T12:59:27;1.70;;;1.70;;
73132;SDS011;61320;52.008;4.530;2022-07-06T13:01:54;1.81;;;1.81;;
73132;SDS011;61320;52.008;4.530;2022-07-06T13:04:21;1.75;;;1.74;;
73132;SDS011;61320;52.008;4.530;2022-07-06T13:06:58;1.82;;;1.82;;
73132;SDS011;61320;52.008;4.530;2022-07-06T13:09:25;1.60;;;1.60;;
73132;SDS011;61320;52.008;4.530;2022-07-06T13:11:51;1.69;;;1.69;;
73132;SDS011;61320;52.008;4.530;2022-07-06T13:14:17;1.87;;;1.87;;
73132;SDS011;61320;52.008;4.530;2022-07-06T13:16:43;1.79;;;1.79;;
73132;SDS011;61320;52.008;4.530;2022-07-06T13:19:10;1.83;;;1.83;;
73132;SDS011;61320;52.008;4.530;2022-07-06T13:21:36;1.95;;;1.95;;
73132;SDS011;61320;52.008;4.530;2022-07-06T13:24:02;1.97;;;1.97;;
73132;SDS011;61320;52.008;4.530;2022-07-06T13:26:28;1.82;;;1.82;;
73132;SDS011;61320;52.008;4.530;2022-07-06T13:28:54;1.75;;;1.75;;
73132;SDS011;61320;52.008;4.530;2022-07-06T13:31:22;1.97;;;1.97;;
73132;SDS011;61320;52.008;4.530;2022-07-06T13:33:47;1.96;;;1.96;;
73132;SDS011;61320;52.008;4.530;2022-07-06T13:36:13;2.50;;;2.50;;
73132;SDS011;61320;52.008;4.530;2022-07-06T13:38:38;2.07;;;2.07;;
73132;SDS011;61320;52.008;4.530;2022-07-06T13:41:03;2.50;;;2.50;;
73132;SDS011;61320;52.008;4.530;2022-07-06T13:43:31;2.52;;;2.52;;
73132;SDS011;61320;52.008;4.530;2022-07-06T13:46:04;2.24;;;2.24;;
73132;SDS011;61320;52.008;4.530;2022-07-06T13:48:30;2.51;;;2.51;;
73132;SDS011;61320;52.008;4.530;2022-07-06T13:50:56;2.60;;;2.60;;
73132;SDS011;61320;52.008;4.530;2022-07-06T13:53:21;2.74;;;2.74;;
73132;SDS011;61320;52.008;4.530;2022-07-06T13:55:47;2.99;;;2.99;;
73132;SDS011;61320;52.008;4.530;2022-07-06T13:58:12;2.63;;;2.63;;
73132;SDS011;61320;52.008;4.530;2022-07-06T14:00:38;3.06;;;3.06;;
73132;SDS011;61320;52.008;4.530;2022-07-06T14:03:04;3.23;;;3.23;;
73132;SDS011;61320;52.008;4.530;2022-07-06T14:05:30;3.39;;;3.39;;
73132;SDS011;61320;52.008;4.530;2022-07-06T14:07:55;3.16;;;3.16;;
73132;SDS011;61320;52.008;4.530;2022-07-06T14:10:21;3.67;;;3.67;;
73132;SDS011;61320;52.008;4.530;2022-07-06T14:12:46;3.57;;;3.57;;
73132;SDS011;61320;52.008;4.530;2022-07-06T14:15:12;3.41;;;3.41;;
73132;SDS011;61320;52.008;4.530;2022-07-06T14:17:37;3.59;;;3.59;;
73132;SDS011;61320;52.008;4.530;2022-07-06T14:20:03;3.31;;;3.31;;
73132;SDS011;61320;52.008;4.530;2022-07-06T14:22:29;3.63;;;3.63;;
73132;SDS011;61320;52.008;4.530;2022-07-06T14:24:54;4.04;;;4.04;;
73132;SDS011;61320;52.008;4.530;2022-07-06T14:27:20;3.92;;;3.92;;
73132;SDS011;61320;52.008;4.530;2022-07-06T14:29:45;3.80;;;3.80;;
73132;SDS011;61320;52.008;4.530;2022-07-06T14:32:10;3.47;;;3.47;;
73132;SDS011;61320;52.008;4.530;2022-07-06T14:34:36;3.47;;;3.47;;
73132;SDS011;61320;52.008;4.530;2022-07-06T14:37:02;4.40;;;4.40;;
73132;SDS011;61320;52.008;4.530;2022-07-06T14:39:28;4.58;;;4.58;;
73132;SDS011;61320;52.008;4.530;2022-07-06T14:41:53;4.12;;;4.12;;
73132;SDS011;61320;52.008;4.530;2022-07-06T14:44:18;4.00;;;4.00;;
73132;SDS011;61320;52.008;4.530;2022-07-06T14:46:44;3.88;;;3.88;;
73132;SDS011;61320;52.008;4.530;2022-07-06T14:49:09;3.90;;;3.90;;
73132;SDS011;61320;52.008;4.530;2022-07-06T14:51:35;3.70;;;3.70;;
73132;SDS011;61320;52.008;4.530;2022-07-06T14:54:00;3.36;;;3.36;;
73132;SDS011;61320;52.008;4.530;2022-07-06T14:56:25;3.43;;;3.43;;
73132;SDS011;61320;52.008;4.530;2022-07-06T14:58:51;3.40;;;3.40;;